Terminal Aerodrome Forecast
Issued by NWS Green Bay, WI

Home | Current Version | Previous Version | Text Only | Print | Product List | Glossary Off
Versions: 1 2 3 4 5 6 7 8 9 10 11 12 13 14 15 16 17

000
FTUS43 KGRB 201122
TAFGRB
TAF
KGRB 201122Z 2012/2112 20008KT P6SM SKC
     FM201500 20011G17KT P6SM SKC
     FM202200 18008KT P6SM SKC
     FM210300 19007KT P6SM SCT200 WS019/22045KT=

USA.gov is the U.S. government's official web portal to all federal, state and local government web resources and services.